sensor_id;sensor_type;location;lat;lon;timestamp;P1;durP1;ratioP1;P2;durP2;ratioP2
18532;SDS011;9396;51.510;11.934;2023-04-28T00:01:50;8.63;;;4.37;;
18532;SDS011;9396;51.510;11.934;2023-04-28T00:04:16;8.60;;;4.07;;
18532;SDS011;9396;51.510;11.934;2023-04-28T00:06:43;6.50;;;3.87;;
18532;SDS011;9396;51.510;11.934;2023-04-28T00:09:10;7.33;;;4.10;;
18532;SDS011;9396;51.510;11.934;2023-04-28T00:11:38;8.23;;;4.47;;
18532;SDS011;9396;51.510;11.934;2023-04-28T00:14:05;8.23;;;4.20;;
18532;SDS011;9396;51.510;11.934;2023-04-28T00:16:31;6.07;;;3.90;;
18532;SDS011;9396;51.510;11.934;2023-04-28T00:18:58;5.37;;;4.10;;
18532;SDS011;9396;51.510;11.934;2023-04-28T00:21:25;9.70;;;4.27;;
18532;SDS011;9396;51.510;11.934;2023-04-28T00:23:52;5.23;;;3.90;;
18532;SDS011;9396;51.510;11.934;2023-04-28T00:26:19;6.33;;;3.73;;
18532;SDS011;9396;51.510;11.934;2023-04-28T00:28:47;6.07;;;4.17;;
18532;SDS011;9396;51.510;11.934;2023-04-28T00:31:14;5.50;;;3.70;;
18532;SDS011;9396;51.510;11.934;2023-04-28T00:33:41;6.13;;;4.07;;
18532;SDS011;9396;51.510;11.934;2023-04-28T00:36:09;9.70;;;3.90;;
18532;SDS011;9396;51.510;11.934;2023-04-28T00:38:36;5.13;;;3.97;;
18532;SDS011;9396;51.510;11.934;2023-04-28T00:41:03;7.97;;;4.00;;
18532;SDS011;9396;51.510;11.934;2023-04-28T00:43:30;6.23;;;4.50;;
18532;SDS011;9396;51.510;11.934;2023-04-28T00:45:58;8.27;;;3.60;;
18532;SDS011;9396;51.510;11.934;2023-04-28T00:48:25;7.80;;;4.40;;
18532;SDS011;9396;51.510;11.934;2023-04-28T00:50:53;5.50;;;3.87;;
18532;SDS011;9396;51.510;11.934;2023-04-28T00:53:20;6.13;;;4.27;;
18532;SDS011;9396;51.510;11.934;2023-04-28T00:55:47;5.97;;;4.13;;
18532;SDS011;9396;51.510;11.934;2023-04-28T00:58:16;7.50;;;4.20;;
18532;SDS011;9396;51.510;11.934;2023-04-28T01:00:44;7.17;;;4.60;;
18532;SDS011;9396;51.510;11.934;2023-04-28T01:03:12;6.53;;;4.07;;
18532;SDS011;9396;51.510;11.934;2023-04-28T01:05:39;6.23;;;4.23;;
18532;SDS011;9396;51.510;11.934;2023-04-28T01:08:06;5.40;;;4.17;;
18532;SDS011;9396;51.510;11.934;2023-04-28T01:10:33;8.70;;;4.40;;
18532;SDS011;9396;51.510;11.934;2023-04-28T01:13:00;6.07;;;4.20;;
18532;SDS011;9396;51.510;11.934;2023-04-28T01:15:26;7.67;;;4.20;;
18532;SDS011;9396;51.510;11.934;2023-04-28T01:17:54;7.03;;;3.90;;
18532;SDS011;9396;51.510;11.934;2023-04-28T01:20:22;7.27;;;4.20;;
18532;SDS011;9396;51.510;11.934;2023-04-28T01:22:49;6.10;;;3.87;;
18532;SDS011;9396;51.510;11.934;2023-04-28T01:25:17;6.13;;;4.80;;
18532;SDS011;9396;51.510;11.934;2023-04-28T01:27:44;6.53;;;4.00;;
18532;SDS011;9396;51.510;11.934;2023-04-28T01:30:10;8.67;;;4.80;;
18532;SDS011;9396;51.510;11.934;2023-04-28T01:32:37;7.43;;;4.20;;
18532;SDS011;9396;51.510;11.934;2023-04-28T01:35:04;6.23;;;3.63;;
18532;SDS011;9396;51.510;11.934;2023-04-28T01:37:31;6.90;;;4.10;;
18532;SDS011;9396;51.510;11.934;2023-04-28T01:39:58;6.27;;;4.70;;
18532;SDS011;9396;51.510;11.934;2023-04-28T01:42:26;7.00;;;4.53;;
18532;SDS011;9396;51.510;11.934;2023-04-28T01:44:52;7.70;;;4.37;;
18532;SDS011;9396;51.510;11.934;2023-04-28T01:47:19;8.63;;;4.30;;
18532;SDS011;9396;51.510;11.934;2023-04-28T01:49:46;6.27;;;4.20;;
18532;SDS011;9396;51.510;11.934;2023-04-28T01:52:14;5.67;;;4.10;;
18532;SDS011;9396;51.510;11.934;2023-04-28T01:54:40;9.17;;;4.40;;
18532;SDS011;9396;51.510;11.934;2023-04-28T01:57:07;6.43;;;4.10;;
18532;SDS011;9396;51.510;11.934;2023-04-28T01:59:35;6.53;;;4.17;;
18532;SDS011;9396;51.510;11.934;2023-04-28T02:02:01;7.53;;;4.27;;
18532;SDS011;9396;51.510;11.934;2023-04-28T02:04:28;4.73;;;3.90;;
18532;SDS011;9396;51.510;11.934;2023-04-28T02:06:55;9.03;;;4.93;;
18532;SDS011;9396;51.510;11.934;2023-04-28T02:09:21;6.10;;;4.07;;
18532;SDS011;9396;51.510;11.934;2023-04-28T02:11:48;7.17;;;4.07;;
18532;SDS011;9396;51.510;11.934;2023-04-28T02:14:15;5.40;;;3.70;;
18532;SDS011;9396;51.510;11.934;2023-04-28T02:16:43;9.17;;;4.43;;
18532;SDS011;9396;51.510;11.934;2023-04-28T02:19:09;7.93;;;4.53;;
18532;SDS011;9396;51.510;11.934;2023-04-28T02:21:36;7.63;;;4.20;;
18532;SDS011;9396;51.510;11.934;2023-04-28T02:24:03;7.53;;;4.70;;
18532;SDS011;9396;51.510;11.934;2023-04-28T02:26:30;6.87;;;4.43;;
18532;SDS011;9396;51.510;11.934;2023-04-28T02:28:58;5.00;;;4.47;;
18532;SDS011;9396;51.510;11.934;2023-04-28T02:31:25;8.83;;;4.40;;
18532;SDS011;9396;51.510;11.934;2023-04-28T02:33:53;6.27;;;4.30;;
18532;SDS011;9396;51.510;11.934;2023-04-28T02:36:20;6.33;;;4.23;;
18532;SDS011;9396;51.510;11.934;2023-04-28T02:38:46;7.53;;;4.43;;
18532;SDS011;9396;51.510;11.934;2023-04-28T02:41:13;7.17;;;4.43;;
18532;SDS011;9396;51.510;11.934;2023-04-28T02:43:40;8.33;;;4.47;;
18532;SDS011;9396;51.510;11.934;2023-04-28T02:46:06;7.17;;;4.47;;
18532;SDS011;9396;51.510;11.934;2023-04-28T02:48:33;8.27;;;4.47;;
18532;SDS011;9396;51.510;11.934;2023-04-28T02:51:02;8.00;;;4.37;;
18532;SDS011;9396;51.510;11.934;2023-04-28T02:53:29;6.00;;;4.20;;
18532;SDS011;9396;51.510;11.934;2023-04-28T02:55:56;8.27;;;4.40;;
18532;SDS011;9396;51.510;11.934;2023-04-28T02:58:23;10.53;;;5.00;;
18532;SDS011;9396;51.510;11.934;2023-04-28T03:00:50;6.50;;;4.60;;
18532;SDS011;9396;51.510;11.934;2023-04-28T03:03:17;6.10;;;4.63;;
18532;SDS011;9396;51.510;11.934;2023-04-28T03:05:44;8.67;;;4.50;;
18532;SDS011;9396;51.510;11.934;2023-04-28T03:08:12;8.03;;;4.97;;
18532;SDS011;9396;51.510;11.934;2023-04-28T03:10:38;7.17;;;4.30;;
18532;SDS011;9396;51.510;11.934;2023-04-28T03:13:05;7.63;;;4.87;;
18532;SDS011;9396;51.510;11.934;2023-04-28T03:15:32;11.93;;;5.00;;
18532;SDS011;9396;51.510;11.934;2023-04-28T03:17:59;8.57;;;5.27;;
18532;SDS011;9396;51.510;11.934;2023-04-28T03:20:25;7.90;;;5.30;;
18532;SDS011;9396;51.510;11.934;2023-04-28T03:22:52;8.87;;;5.30;;
18532;SDS011;9396;51.510;11.934;2023-04-28T03:25:20;7.67;;;5.33;;
18532;SDS011;9396;51.510;11.934;2023-04-28T03:27:46;6.73;;;4.70;;
18532;SDS011;9396;51.510;11.934;2023-04-28T03:30:13;9.40;;;5.83;;
18532;SDS011;9396;51.510;11.934;2023-04-28T03:32:40;8.57;;;4.87;;
18532;SDS011;9396;51.510;11.934;2023-04-28T03:35:07;10.67;;;5.50;;
18532;SDS011;9396;51.510;11.934;2023-04-28T03:37:34;9.63;;;5.00;;
18532;SDS011;9396;51.510;11.934;2023-04-28T03:40:00;5.77;;;4.70;;
18532;SDS011;9396;51.510;11.934;2023-04-28T03:42:28;11.30;;;6.07;;
18532;SDS011;9396;51.510;11.934;2023-04-28T03:44:55;9.07;;;5.67;;
18532;SDS011;9396;51.510;11.934;2023-04-28T03:47:22;8.07;;;5.57;;
18532;SDS011;9396;51.510;11.934;2023-04-28T03:49:48;9.27;;;5.23;;
18532;SDS011;9396;51.510;11.934;2023-04-28T03:52:16;7.33;;;5.67;;
18532;SDS011;9396;51.510;11.934;2023-04-28T03:54:42;9.83;;;5.20;;
18532;SDS011;9396;51.510;11.934;2023-04-28T03:57:10;9.37;;;6.07;;
18532;SDS011;9396;51.510;11.934;2023-04-28T03:59:38;7.97;;;6.03;;
18532;SDS011;9396;51.510;11.934;2023-04-28T04:02:04;9.77;;;5.50;;
18532;SDS011;9396;51.510;11.934;2023-04-28T04:04:31;8.20;;;6.33;;
18532;SDS011;9396;51.510;11.934;2023-04-28T04:06:57;7.93;;;5.83;;
18532;SDS011;9396;51.510;11.934;2023-04-28T04:09:24;10.50;;;6.40;;
18532;SDS011;9396;51.510;11.934;2023-04-28T04:11:51;9.80;;;5.50;;
18532;SDS011;9396;51.510;11.934;2023-04-28T04:14:18;10.73;;;5.87;;
18532;SDS011;9396;51.510;11.934;2023-04-28T04:16:46;11.93;;;6.47;;
18532;SDS011;9396;51.510;11.934;2023-04-28T04:19:13;8.17;;;6.03;;
18532;SDS011;9396;51.510;11.934;2023-04-28T04:21:40;8.73;;;6.50;;
18532;SDS011;9396;51.510;11.934;2023-04-28T04:24:06;9.77;;;7.10;;
18532;SDS011;9396;51.510;11.934;2023-04-28T04:26:33;6.57;;;5.67;;
18532;SDS011;9396;51.510;11.934;2023-04-28T04:29:00;11.30;;;6.80;;
18532;SDS011;9396;51.510;11.934;2023-04-28T04:31:26;11.40;;;6.83;;
18532;SDS011;9396;51.510;11.934;2023-04-28T04:33:54;10.93;;;7.40;;
18532;SDS011;9396;51.510;11.934;2023-04-28T04:36:22;10.10;;;7.03;;
18532;SDS011;9396;51.510;11.934;2023-04-28T04:38:48;12.63;;;6.83;;
18532;SDS011;9396;51.510;11.934;2023-04-28T04:41:15;10.93;;;7.17;;
18532;SDS011;9396;51.510;11.934;2023-04-28T04:43:41;13.07;;;6.77;;
18532;SDS011;9396;51.510;11.934;2023-04-28T04:46:08;10.43;;;7.90;;
18532;SDS011;9396;51.510;11.934;2023-04-28T04:48:35;12.17;;;7.07;;
18532;SDS011;9396;51.510;11.934;2023-04-28T04:51:03;10.67;;;7.23;;
18532;SDS011;9396;51.510;11.934;2023-04-28T04:53:30;13.93;;;7.07;;
18532;SDS011;9396;51.510;11.934;2023-04-28T04:55:56;10.73;;;7.87;;
18532;SDS011;9396;51.510;11.934;2023-04-28T04:58:23;16.17;;;7.63;;
18532;SDS011;9396;51.510;11.934;2023-04-28T05:00:50;12.80;;;7.43;;
18532;SDS011;9396;51.510;11.934;2023-04-28T05:03:16;9.70;;;7.33;;
18532;SDS011;9396;51.510;11.934;2023-04-28T05:05:43;15.77;;;7.73;;
18532;SDS011;9396;51.510;11.934;2023-04-28T05:08:11;12.67;;;6.20;;
18532;SDS011;9396;51.510;11.934;2023-04-28T05:10:38;10.90;;;7.30;;
18532;SDS011;9396;51.510;11.934;2023-04-28T05:13:05;13.03;;;7.67;;
18532;SDS011;9396;51.510;11.934;2023-04-28T05:15:32;11.63;;;8.13;;
18532;SDS011;9396;51.510;11.934;2023-04-28T05:17:58;13.83;;;8.17;;
18532;SDS011;9396;51.510;11.934;2023-04-28T05:20:30;11.70;;;8.03;;
18532;SDS011;9396;51.510;11.934;2023-04-28T05:22:57;9.83;;;8.27;;
18532;SDS011;9396;51.510;11.934;2023-04-28T05:25:25;10.13;;;8.20;;
18532;SDS011;9396;51.510;11.934;2023-04-28T05:27:51;11.77;;;8.33;;
18532;SDS011;9396;51.510;11.934;2023-04-28T05:30:18;16.47;;;8.07;;
18532;SDS011;9396;51.510;11.934;2023-04-28T05:32:45;10.47;;;8.10;;
18532;SDS011;9396;51.510;11.934;2023-04-28T05:35:11;12.13;;;8.27;;
18532;SDS011;9396;51.510;11.934;2023-04-28T05:37:39;12.27;;;7.73;;
18532;SDS011;9396;51.510;11.934;2023-04-28T05:40:08;11.47;;;8.03;;
18532;SDS011;9396;51.510;11.934;2023-04-28T05:42:36;14.30;;;7.80;;
18532;SDS011;9396;51.510;11.934;2023-04-28T05:45:04;15.27;;;8.20;;
18532;SDS011;9396;51.510;11.934;2023-04-28T05:47:31;10.30;;;7.43;;
18532;SDS011;9396;51.510;11.934;2023-04-28T05:49:58;12.03;;;7.63;;
18532;SDS011;9396;51.510;11.934;2023-04-28T05:52:25;10.47;;;7.80;;
18532;SDS011;9396;51.510;11.934;2023-04-28T05:54:51;9.60;;;7.80;;
18532;SDS011;9396;51.510;11.934;2023-04-28T05:57:18;11.93;;;8.27;;
18532;SDS011;9396;51.510;11.934;2023-04-28T05:59:46;9.17;;;7.30;;
18532;SDS011;9396;51.510;11.934;2023-04-28T06:02:13;10.00;;;7.50;;
18532;SDS011;9396;51.510;11.934;2023-04-28T06:04:40;13.47;;;8.07;;
18532;SDS011;9396;51.510;11.934;2023-04-28T06:07:08;13.27;;;8.17;;
18532;SDS011;9396;51.510;11.934;2023-04-28T06:09:35;9.63;;;7.23;;
18532;SDS011;9396;51.510;11.934;2023-04-28T06:12:02;10.20;;;7.33;;
18532;SDS011;9396;51.510;11.934;2023-04-28T06:14:29;12.27;;;8.17;;
18532;SDS011;9396;51.510;11.934;2023-04-28T06:16:57;12.57;;;8.10;;
18532;SDS011;9396;51.510;11.934;2023-04-28T06:19:24;17.10;;;7.43;;
18532;SDS011;9396;51.510;11.934;2023-04-28T06:21:51;17.93;;;8.13;;
18532;SDS011;9396;51.510;11.934;2023-04-28T06:24:17;11.33;;;7.77;;
18532;SDS011;9396;51.510;11.934;2023-04-28T06:26:45;9.67;;;7.40;;
18532;SDS011;9396;51.510;11.934;2023-04-28T06:29:11;16.00;;;8.30;;
18532;SDS011;9396;51.510;11.934;2023-04-28T06:31:38;11.23;;;7.27;;
18532;SDS011;9396;51.510;11.934;2023-04-28T06:34:06;10.97;;;7.60;;
18532;SDS011;9396;51.510;11.934;2023-04-28T06:36:33;13.23;;;7.47;;
18532;SDS011;9396;51.510;11.934;2023-04-28T06:38:59;8.77;;;7.30;;
18532;SDS011;9396;51.510;11.934;2023-04-28T06:41:26;10.80;;;7.37;;
18532;SDS011;9396;51.510;11.934;2023-04-28T06:43:54;10.67;;;7.73;;
18532;SDS011;9396;51.510;11.934;2023-04-28T06:46:21;12.00;;;7.47;;
18532;SDS011;9396;51.510;11.934;2023-04-28T06:48:47;13.87;;;8.10;;
18532;SDS011;9396;51.510;11.934;2023-04-28T06:51:16;15.60;;;7.90;;
18532;SDS011;9396;51.510;11.934;2023-04-28T06:53:42;13.90;;;7.73;;
18532;SDS011;9396;51.510;11.934;2023-04-28T06:56:09;12.43;;;8.17;;
18532;SDS011;9396;51.510;11.934;2023-04-28T06:58:36;12.80;;;7.53;;
18532;SDS011;9396;51.510;11.934;2023-04-28T07:01:02;12.43;;;7.87;;
18532;SDS011;9396;51.510;11.934;2023-04-28T07:03:29;12.50;;;7.70;;
18532;SDS011;9396;51.510;11.934;2023-04-28T07:05:56;15.60;;;8.37;;
18532;SDS011;9396;51.510;11.934;2023-04-28T07:08:24;10.80;;;8.47;;
18532;SDS011;9396;51.510;11.934;2023-04-28T07:10:51;12.13;;;7.93;;
18532;SDS011;9396;51.510;11.934;2023-04-28T07:13:18;9.23;;;7.50;;
18532;SDS011;9396;51.510;11.934;2023-04-28T07:15:44;11.03;;;7.80;;
18532;SDS011;9396;51.510;11.934;2023-04-28T07:18:11;14.23;;;7.83;;
18532;SDS011;9396;51.510;11.934;2023-04-28T07:20:38;12.13;;;7.70;;
18532;SDS011;9396;51.510;11.934;2023-04-28T07:23:05;9.97;;;7.13;;
18532;SDS011;9396;51.510;11.934;2023-04-28T07:25:33;10.57;;;6.90;;
18532;SDS011;9396;51.510;11.934;2023-04-28T07:28:01;13.00;;;7.13;;
18532;SDS011;9396;51.510;11.934;2023-04-28T07:30:29;9.63;;;6.83;;
18532;SDS011;9396;51.510;11.934;2023-04-28T07:32:55;12.67;;;7.80;;
18532;SDS011;9396;51.510;11.934;2023-04-28T07:35:22;16.33;;;7.30;;
18532;SDS011;9396;51.510;11.934;2023-04-28T07:37:49;12.57;;;6.97;;
18532;SDS011;9396;51.510;11.934;2023-04-28T07:40:16;15.60;;;7.37;;
18532;SDS011;9396;51.510;11.934;2023-04-28T07:42:45;13.60;;;7.10;;
18532;SDS011;9396;51.510;11.934;2023-04-28T07:45:13;11.87;;;7.93;;
18532;SDS011;9396;51.510;11.934;2023-04-28T07:47:39;11.80;;;7.00;;
18532;SDS011;9396;51.510;11.934;2023-04-28T07:50:07;12.07;;;7.07;;
18532;SDS011;9396;51.510;11.934;2023-04-28T07:52:34;13.83;;;7.37;;
18532;SDS011;9396;51.510;11.934;2023-04-28T07:55:00;13.50;;;6.80;;
18532;SDS011;9396;51.510;11.934;2023-04-28T07:57:28;9.40;;;6.60;;
18532;SDS011;9396;51.510;11.934;2023-04-28T07:59:56;12.97;;;7.13;;
18532;SDS011;9396;51.510;11.934;2023-04-28T08:02:23;14.77;;;6.70;;
18532;SDS011;9396;51.510;11.934;2023-04-28T08:04:51;13.80;;;6.83;;
18532;SDS011;9396;51.510;11.934;2023-04-28T08:07:18;9.83;;;6.70;;
18532;SDS011;9396;51.510;11.934;2023-04-28T08:09:44;19.60;;;6.67;;
18532;SDS011;9396;51.510;11.934;2023-04-28T08:12:12;9.43;;;6.97;;
18532;SDS011;9396;51.510;11.934;2023-04-28T08:14:39;12.77;;;6.53;;
18532;SDS011;9396;51.510;11.934;2023-04-28T08:17:07;11.37;;;6.77;;
18532;SDS011;9396;51.510;11.934;2023-04-28T08:19:33;12.37;;;7.10;;
18532;SDS011;9396;51.510;11.934;2023-04-28T08:22:00;11.17;;;6.27;;
18532;SDS011;9396;51.510;11.934;2023-04-28T08:24:29;15.87;;;6.73;;
18532;SDS011;9396;51.510;11.934;2023-04-28T08:26:59;11.03;;;6.67;;
18532;SDS011;9396;51.510;11.934;2023-04-28T08:29:27;9.10;;;6.87;;
18532;SDS011;9396;51.510;11.934;2023-04-28T08:31:53;10.33;;;6.37;;
18532;SDS011;9396;51.510;11.934;2023-04-28T08:34:21;10.43;;;5.93;;
18532;SDS011;9396;51.510;11.934;2023-04-28T08:36:48;8.67;;;6.40;;
18532;SDS011;9396;51.510;11.934;2023-04-28T08:39:16;14.27;;;6.37;;
18532;SDS011;9396;51.510;11.934;2023-04-28T08:41:43;14.77;;;6.80;;
18532;SDS011;9396;51.510;11.934;2023-04-28T08:44:10;15.03;;;6.40;;
18532;SDS011;9396;51.510;11.934;2023-04-28T08:46:38;17.83;;;6.63;;
18532;SDS011;9396;51.510;11.934;2023-04-28T08:49:06;10.53;;;6.13;;
18532;SDS011;9396;51.510;11.934;2023-04-28T08:51:43;9.23;;;5.93;;
18532;SDS011;9396;51.510;11.934;2023-04-28T08:54:13;9.97;;;5.53;;
18532;SDS011;9396;51.510;11.934;2023-04-28T08:56:41;13.10;;;5.93;;
18532;SDS011;9396;51.510;11.934;2023-04-28T08:59:09;12.33;;;6.30;;
18532;SDS011;9396;51.510;11.934;2023-04-28T09:01:36;10.27;;;5.40;;
18532;SDS011;9396;51.510;11.934;2023-04-28T09:04:04;8.87;;;5.90;;
18532;SDS011;9396;51.510;11.934;2023-04-28T09:06:31;17.83;;;6.20;;
18532;SDS011;9396;51.510;11.934;2023-04-28T09:11:51;14.17;;;6.33;;
18532;SDS011;9396;51.510;11.934;2023-04-28T09:14:22;12.60;;;6.53;;
18532;SDS011;9396;51.510;11.934;2023-04-28T09:16:49;10.33;;;6.50;;
18532;SDS011;9396;51.510;11.934;2023-04-28T09:19:16;9.87;;;6.57;;
18532;SDS011;9396;51.510;11.934;2023-04-28T09:21:47;16.60;;;7.10;;
18532;SDS011;9396;51.510;11.934;2023-04-28T09:24:31;11.00;;;7.10;;
18532;SDS011;9396;51.510;11.934;2023-04-28T09:26:59;11.80;;;7.40;;
18532;SDS011;9396;51.510;11.934;2023-04-28T09:29:27;8.67;;;6.83;;
18532;SDS011;9396;51.510;11.934;2023-04-28T09:31:58;14.17;;;7.60;;
18532;SDS011;9396;51.510;11.934;2023-04-28T09:34:41;9.97;;;7.33;;
18532;SDS011;9396;51.510;11.934;2023-04-28T09:37:13;11.53;;;7.17;;
18532;SDS011;9396;51.510;11.934;2023-04-28T09:39:42;13.20;;;7.77;;
18532;SDS011;9396;51.510;11.934;2023-04-28T09:42:09;11.13;;;7.80;;
18532;SDS011;9396;51.510;11.934;2023-04-28T09:44:36;11.40;;;7.70;;
18532;SDS011;9396;51.510;11.934;2023-04-28T09:47:09;12.47;;;8.03;;
18532;SDS011;9396;51.510;11.934;2023-04-28T09:49:52;11.23;;;7.10;;
18532;SDS011;9396;51.510;11.934;2023-04-28T09:52:20;12.70;;;7.90;;
18532;SDS011;9396;51.510;11.934;2023-04-28T09:54:50;10.60;;;7.70;;
18532;SDS011;9396;51.510;11.934;2023-04-28T09:57:17;21.17;;;8.67;;
18532;SDS011;9396;51.510;11.934;2023-04-28T09:59:46;14.43;;;8.40;;
18532;SDS011;9396;51.510;11.934;2023-04-28T10:02:13;10.70;;;8.47;;
18532;SDS011;9396;51.510;11.934;2023-04-28T10:04:41;11.00;;;8.50;;
18532;SDS011;9396;51.510;11.934;2023-04-28T10:07:09;11.27;;;8.23;;
18532;SDS011;9396;51.510;11.934;2023-04-28T10:09:37;13.80;;;9.03;;
18532;SDS011;9396;51.510;11.934;2023-04-28T10:12:09;9.57;;;8.27;;
18532;SDS011;9396;51.510;11.934;2023-04-28T10:14:36;12.30;;;9.67;;
18532;SDS011;9396;51.510;11.934;2023-04-28T10:17:03;17.00;;;9.63;;
18532;SDS011;9396;51.510;11.934;2023-04-28T10:19:30;14.43;;;9.63;;
18532;SDS011;9396;51.510;11.934;2023-04-28T10:22:00;13.07;;;9.70;;
18532;SDS011;9396;51.510;11.934;2023-04-28T10:24:49;14.90;;;9.33;;
18532;SDS011;9396;51.510;11.934;2023-04-28T10:27:31;12.67;;;9.60;;
18532;SDS011;9396;51.510;11.934;2023-04-28T10:30:10;15.83;;;10.63;;
18532;SDS011;9396;51.510;11.934;2023-04-28T10:32:37;15.40;;;10.03;;
18532;SDS011;9396;51.510;11.934;2023-04-28T10:38:09;15.63;;;10.90;;
18532;SDS011;9396;51.510;11.934;2023-04-28T10:40:39;14.63;;;10.50;;
18532;SDS011;9396;51.510;11.934;2023-04-28T10:43:08;18.00;;;11.30;;
18532;SDS011;9396;51.510;11.934;2023-04-28T10:48:51;15.13;;;10.67;;
18532;SDS011;9396;51.510;11.934;2023-04-28T10:51:20;15.60;;;10.53;;
18532;SDS011;9396;51.510;11.934;2023-04-28T10:54:09;17.83;;;11.10;;
18532;SDS011;9396;51.510;11.934;2023-04-28T10:59:48;18.57;;;11.53;;
18532;SDS011;9396;51.510;11.934;2023-04-28T11:05:15;19.40;;;12.00;;
18532;SDS011;9396;51.510;11.934;2023-04-28T11:13:50;18.87;;;12.17;;
18532;SDS011;9396;51.510;11.934;2023-04-28T11:16:19;19.90;;;11.30;;
18532;SDS011;9396;51.510;11.934;2023-04-28T11:18:48;17.53;;;11.73;;
18532;SDS011;9396;51.510;11.934;2023-04-28T11:21:23;13.37;;;11.70;;
18532;SDS011;9396;51.510;11.934;2023-04-28T11:23:52;18.07;;;12.50;;
18532;SDS011;9396;51.510;11.934;2023-04-28T11:26:19;17.20;;;11.87;;
18532;SDS011;9396;51.510;11.934;2023-04-28T11:28:48;18.40;;;11.27;;
18532;SDS011;9396;51.510;11.934;2023-04-28T11:31:16;15.77;;;10.97;;
18532;SDS011;9396;51.510;11.934;2023-04-28T11:33:47;14.00;;;11.10;;
18532;SDS011;9396;51.510;11.934;2023-04-28T11:36:23;13.70;;;10.67;;
18532;SDS011;9396;51.510;11.934;2023-04-28T11:39:00;13.60;;;10.60;;
18532;SDS011;9396;51.510;11.934;2023-04-28T11:41:29;14.50;;;10.80;;
18532;SDS011;9396;51.510;11.934;2023-04-28T11:43:56;19.33;;;10.80;;
18532;SDS011;9396;51.510;11.934;2023-04-28T11:46:23;15.30;;;10.83;;
18532;SDS011;9396;51.510;11.934;2023-04-28T11:49:02;20.70;;;10.33;;
18532;SDS011;9396;51.510;11.934;2023-04-28T11:51:30;25.00;;;10.27;;
18532;SDS011;9396;51.510;11.934;2023-04-28T11:54:01;18.30;;;10.00;;
18532;SDS011;9396;51.510;11.934;2023-04-28T11:56:29;14.70;;;9.97;;
18532;SDS011;9396;51.510;11.934;2023-04-28T11:58:59;16.13;;;9.97;;
18532;SDS011;9396;51.510;11.934;2023-04-28T12:01:28;14.43;;;9.47;;
18532;SDS011;9396;51.510;11.934;2023-04-28T12:03:55;15.23;;;10.43;;
18532;SDS011;9396;51.510;11.934;2023-04-28T12:06:23;12.17;;;9.07;;
18532;SDS011;9396;51.510;11.934;2023-04-28T12:08:49;14.90;;;10.17;;
18532;SDS011;9396;51.510;11.934;2023-04-28T12:11:16;15.63;;;9.30;;
18532;SDS011;9396;51.510;11.934;2023-04-28T12:13:50;14.10;;;9.47;;
18532;SDS011;9396;51.510;11.934;2023-04-28T12:16:35;13.67;;;9.03;;
18532;SDS011;9396;51.510;11.934;2023-04-28T12:19:03;11.07;;;8.50;;
18532;SDS011;9396;51.510;11.934;2023-04-28T12:21:35;14.50;;;8.90;;
18532;SDS011;9396;51.510;11.934;2023-04-28T12:24:12;16.83;;;9.60;;
18532;SDS011;9396;51.510;11.934;2023-04-28T12:26:42;15.43;;;9.47;;
18532;SDS011;9396;51.510;11.934;2023-04-28T12:29:09;13.53;;;9.97;;
18532;SDS011;9396;51.510;11.934;2023-04-28T12:31:48;15.97;;;9.17;;
18532;SDS011;9396;51.510;11.934;2023-04-28T12:34:16;12.07;;;9.20;;
18532;SDS011;9396;51.510;11.934;2023-04-28T12:36:45;14.93;;;10.43;;
18532;SDS011;9396;51.510;11.934;2023-04-28T12:39:12;11.57;;;8.63;;
18532;SDS011;9396;51.510;11.934;2023-04-28T12:41:40;19.43;;;9.20;;
18532;SDS011;9396;51.510;11.934;2023-04-28T12:44:08;16.67;;;9.13;;
18532;SDS011;9396;51.510;11.934;2023-04-28T12:46:35;12.60;;;9.17;;
18532;SDS011;9396;51.510;11.934;2023-04-28T12:49:02;16.33;;;9.60;;
18532;SDS011;9396;51.510;11.934;2023-04-28T12:51:29;10.43;;;7.90;;
18532;SDS011;9396;51.510;11.934;2023-04-28T12:53:57;13.13;;;7.47;;
18532;SDS011;9396;51.510;11.934;2023-04-28T12:56:24;12.67;;;7.77;;
18532;SDS011;9396;51.510;11.934;2023-04-28T12:58:51;10.00;;;6.70;;
18532;SDS011;9396;51.510;11.934;2023-04-28T13:01:18;10.80;;;7.43;;
18532;SDS011;9396;51.510;11.934;2023-04-28T13:03:44;9.33;;;6.83;;
18532;SDS011;9396;51.510;11.934;2023-04-28T13:06:12;10.03;;;7.27;;
18532;SDS011;9396;51.510;11.934;2023-04-28T13:08:39;11.20;;;6.87;;
18532;SDS011;9396;51.510;11.934;2023-04-28T13:11:08;7.33;;;6.40;;
18532;SDS011;9396;51.510;11.934;2023-04-28T13:13:35;9.80;;;6.97;;
18532;SDS011;9396;51.510;11.934;2023-04-28T13:16:01;9.43;;;6.57;;
18532;SDS011;9396;51.510;11.934;2023-04-28T13:18:28;12.33;;;6.87;;
18532;SDS011;9396;51.510;11.934;2023-04-28T13:20:55;11.60;;;6.87;;
18532;SDS011;9396;51.510;11.934;2023-04-28T13:23:22;9.77;;;6.40;;
18532;SDS011;9396;51.510;11.934;2023-04-28T13:25:49;8.43;;;6.80;;
18532;SDS011;9396;51.510;11.934;2023-04-28T13:28:17;8.17;;;5.57;;
18532;SDS011;9396;51.510;11.934;2023-04-28T13:30:44;10.23;;;6.60;;
18532;SDS011;9396;51.510;11.934;2023-04-28T13:33:10;13.00;;;7.00;;
18532;SDS011;9396;51.510;11.934;2023-04-28T13:35:37;10.13;;;5.93;;
18532;SDS011;9396;51.510;11.934;2023-04-28T13:38:03;12.23;;;7.10;;
18532;SDS011;9396;51.510;11.934;2023-04-28T13:40:30;10.13;;;7.20;;
18532;SDS011;9396;51.510;11.934;2023-04-28T13:42:58;11.47;;;6.43;;
18532;SDS011;9396;51.510;11.934;2023-04-28T13:45:26;9.60;;;6.57;;
18532;SDS011;9396;51.510;11.934;2023-04-28T13:47:53;8.50;;;6.10;;
18532;SDS011;9396;51.510;11.934;2023-04-28T13:50:20;7.47;;;5.80;;
18532;SDS011;9396;51.510;11.934;2023-04-28T13:52:46;10.13;;;6.70;;
18532;SDS011;9396;51.510;11.934;2023-04-28T13:55:13;9.17;;;6.43;;
18532;SDS011;9396;51.510;11.934;2023-04-28T13:57:40;9.63;;;6.17;;
18532;SDS011;9396;51.510;11.934;2023-04-28T14:00:07;9.80;;;6.20;;
18532;SDS011;9396;51.510;11.934;2023-04-28T14:02:36;10.20;;;7.13;;
18532;SDS011;9396;51.510;11.934;2023-04-28T14:05:03;7.27;;;6.13;;
18532;SDS011;9396;51.510;11.934;2023-04-28T14:07:31;8.40;;;6.50;;
18532;SDS011;9396;51.510;11.934;2023-04-28T14:09:57;9.77;;;6.97;;
18532;SDS011;9396;51.510;11.934;2023-04-28T14:12:24;12.00;;;6.83;;
18532;SDS011;9396;51.510;11.934;2023-04-28T14:14:50;9.53;;;6.80;;
18532;SDS011;9396;51.510;11.934;2023-04-28T14:17:17;7.53;;;6.07;;
18532;SDS011;9396;51.510;11.934;2023-04-28T14:19:45;7.20;;;6.03;;
18532;SDS011;9396;51.510;11.934;2023-04-28T14:22:12;11.83;;;6.80;;
18532;SDS011;9396;51.510;11.934;2023-04-28T14:24:38;7.40;;;5.93;;
18532;SDS011;9396;51.510;11.934;2023-04-28T14:27:07;11.07;;;6.33;;
18532;SDS011;9396;51.510;11.934;2023-04-28T14:29:33;10.63;;;6.77;;
18532;SDS011;9396;51.510;11.934;2023-04-28T14:32:00;12.53;;;6.60;;
18532;SDS011;9396;51.510;11.934;2023-04-28T14:34:27;8.67;;;6.90;;
18532;SDS011;9396;51.510;11.934;2023-04-28T14:36:55;10.33;;;6.10;;
18532;SDS011;9396;51.510;11.934;2023-04-28T14:39:22;7.77;;;6.00;;
18532;SDS011;9396;51.510;11.934;2023-04-28T14:41:48;10.50;;;6.43;;
18532;SDS011;9396;51.510;11.934;2023-04-28T14:44:15;11.80;;;7.10;;
18532;SDS011;9396;51.510;11.934;2023-04-28T14:46:42;9.70;;;6.23;;
18532;SDS011;9396;51.510;11.934;2023-04-28T14:49:09;11.97;;;7.07;;
18532;SDS011;9396;51.510;11.934;2023-04-28T14:51:36;10.53;;;6.93;;
18532;SDS011;9396;51.510;11.934;2023-04-28T14:54:04;7.73;;;6.33;;
18532;SDS011;9396;51.510;11.934;2023-04-28T14:56:33;8.47;;;6.30;;
18532;SDS011;9396;51.510;11.934;2023-04-28T14:58:59;9.00;;;6.30;;
18532;SDS011;9396;51.510;11.934;2023-04-28T15:01:26;7.83;;;6.13;;
18532;SDS011;9396;51.510;11.934;2023-04-28T15:03:53;8.33;;;6.27;;